sensor_id;sensor_type;location;lat;lon;timestamp;temperature;humidity
58983;DHT22;44771;49.982;8.560;2024-02-04T00:04:40;9.10;99.90
58983;DHT22;44771;49.982;8.560;2024-02-04T00:09:43;9.10;99.90
58983;DHT22;44771;49.982;8.560;2024-02-04T00:14:45;9.10;99.90
58983;DHT22;44771;49.982;8.560;2024-02-04T00:19:47;9.10;99.90
58983;DHT22;44771;49.982;8.560;2024-02-04T00:24:50;9.20;99.90
58983;DHT22;44771;49.982;8.560;2024-02-04T00:29:52;9.20;99.90
58983;DHT22;44771;49.982;8.560;2024-02-04T00:34:54;9.20;99.90
58983;DHT22;44771;49.982;8.560;2024-02-04T00:39:57;9.10;99.90
58983;DHT22;44771;49.982;8.560;2024-02-04T00:44:59;9.20;99.90
58983;DHT22;44771;49.982;8.560;2024-02-04T00:50:01;9.10;99.90
58983;DHT22;44771;49.982;8.560;2024-02-04T00:55:05;9.10;99.90
58983;DHT22;44771;49.982;8.560;2024-02-04T01:00:08;9.10;99.90
58983;DHT22;44771;49.982;8.560;2024-02-04T01:05:10;9.10;99.90
58983;DHT22;44771;49.982;8.560;2024-02-04T01:10:13;9.00;99.90
58983;DHT22;44771;49.982;8.560;2024-02-04T01:15:15;9.10;99.90
58983;DHT22;44771;49.982;8.560;2024-02-04T01:20:17;9.10;99.90
58983;DHT22;44771;49.982;8.560;2024-02-04T01:25:20;9.10;99.90
58983;DHT22;44771;49.982;8.560;2024-02-04T01:30:22;9.00;99.90
58983;DHT22;44771;49.982;8.560;2024-02-04T01:35:24;9.00;99.90
58983;DHT22;44771;49.982;8.560;2024-02-04T01:40:27;9.00;99.90
58983;DHT22;44771;49.982;8.560;2024-02-04T01:45:29;9.10;99.90
58983;DHT22;44771;49.982;8.560;2024-02-04T01:50:31;9.10;99.90
58983;DHT22;44771;49.982;8.560;2024-02-04T01:55:34;9.00;99.90
58983;DHT22;44771;49.982;8.560;2024-02-04T02:00:36;9.00;99.90
58983;DHT22;44771;49.982;8.560;2024-02-04T02:05:40;8.90;99.90
58983;DHT22;44771;49.982;8.560;2024-02-04T02:10:44;8.80;99.90
58983;DHT22;44771;49.982;8.560;2024-02-04T02:15:49;8.60;99.90
58983;DHT22;44771;49.982;8.560;2024-02-04T02:21:07;8.40;99.90
58983;DHT22;44771;49.982;8.560;2024-02-04T02:26:16;8.30;99.90
58983;DHT22;44771;49.982;8.560;2024-02-04T02:31:18;8.30;99.90
58983;DHT22;44771;49.982;8.560;2024-02-04T02:36:36;8.20;99.90
58983;DHT22;44771;49.982;8.560;2024-02-04T02:41:44;8.10;99.90
58983;DHT22;44771;49.982;8.560;2024-02-04T02:46:48;8.10;99.90
58983;DHT22;44771;49.982;8.560;2024-02-04T02:51:50;8.10;99.90
58983;DHT22;44771;49.982;8.560;2024-02-04T02:56:53;8.10;99.90
58983;DHT22;44771;49.982;8.560;2024-02-04T03:01:55;8.10;99.90
58983;DHT22;44771;49.982;8.560;2024-02-04T03:06:58;8.10;99.90
58983;DHT22;44771;49.982;8.560;2024-02-04T03:12:01;8.10;99.90
58983;DHT22;44771;49.982;8.560;2024-02-04T03:17:03;8.10;99.90
58983;DHT22;44771;49.982;8.560;2024-02-04T03:22:11;8.10;99.90
58983;DHT22;44771;49.982;8.560;2024-02-04T03:27:17;8.10;99.90
58983;DHT22;44771;49.982;8.560;2024-02-04T03:32:19;8.10;99.90
58983;DHT22;44771;49.982;8.560;2024-02-04T03:37:21;8.10;99.90
58983;DHT22;44771;49.982;8.560;2024-02-04T03:42:24;8.10;99.90
58983;DHT22;44771;49.982;8.560;2024-02-04T03:47:26;8.10;99.90
58983;DHT22;44771;49.982;8.560;2024-02-04T03:52:28;8.10;99.90
58983;DHT22;44771;49.982;8.560;2024-02-04T03:57:32;8.00;99.90
58983;DHT22;44771;49.982;8.560;2024-02-04T04:02:34;8.10;99.90
58983;DHT22;44771;49.982;8.560;2024-02-04T04:07:36;8.00;99.90
58983;DHT22;44771;49.982;8.560;2024-02-04T04:12:39;8.00;99.90
58983;DHT22;44771;49.982;8.560;2024-02-04T04:17:42;8.10;99.90
58983;DHT22;44771;49.982;8.560;2024-02-04T04:22:44;8.10;99.90
58983;DHT22;44771;49.982;8.560;2024-02-04T04:27:47;8.00;99.90
58983;DHT22;44771;49.982;8.560;2024-02-04T04:32:49;8.10;99.90
58983;DHT22;44771;49.982;8.560;2024-02-04T04:37:52;8.10;99.90
58983;DHT22;44771;49.982;8.560;2024-02-04T04:42:55;8.00;99.90
58983;DHT22;44771;49.982;8.560;2024-02-04T04:47:57;8.00;99.90
58983;DHT22;44771;49.982;8.560;2024-02-04T04:52:59;8.10;99.90
58983;DHT22;44771;49.982;8.560;2024-02-04T04:58:02;8.20;99.90
58983;DHT22;44771;49.982;8.560;2024-02-04T05:03:04;8.20;99.90
58983;DHT22;44771;49.982;8.560;2024-02-04T05:08:07;8.30;99.90
58983;DHT22;44771;49.982;8.560;2024-02-04T05:13:10;8.30;99.90
58983;DHT22;44771;49.982;8.560;2024-02-04T05:18:12;8.40;99.90
58983;DHT22;44771;49.982;8.560;2024-02-04T05:23:14;8.40;99.90
58983;DHT22;44771;49.982;8.560;2024-02-04T05:28:17;8.40;99.90
58983;DHT22;44771;49.982;8.560;2024-02-04T05:33:19;8.50;99.90
58983;DHT22;44771;49.982;8.560;2024-02-04T05:38:21;8.50;99.90
58983;DHT22;44771;49.982;8.560;2024-02-04T05:43:24;8.50;99.90
58983;DHT22;44771;49.982;8.560;2024-02-04T05:48:26;8.50;99.90
58983;DHT22;44771;49.982;8.560;2024-02-04T05:53:31;8.50;99.90
58983;DHT22;44771;49.982;8.560;2024-02-04T05:58:34;8.60;99.90
58983;DHT22;44771;49.982;8.560;2024-02-04T06:03:36;8.50;99.90
58983;DHT22;44771;49.982;8.560;2024-02-04T06:08:38;8.60;99.90
58983;DHT22;44771;49.982;8.560;2024-02-04T06:13:42;8.70;99.90
58983;DHT22;44771;49.982;8.560;2024-02-04T06:18:44;8.70;99.90
58983;DHT22;44771;49.982;8.560;2024-02-04T06:23:46;8.70;99.90
58983;DHT22;44771;49.982;8.560;2024-02-04T06:28:49;8.80;99.90
58983;DHT22;44771;49.982;8.560;2024-02-04T06:33:51;8.80;99.90
58983;DHT22;44771;49.982;8.560;2024-02-04T06:38:53;8.90;99.90
58983;DHT22;44771;49.982;8.560;2024-02-04T06:43:56;8.70;99.90
58983;DHT22;44771;49.982;8.560;2024-02-04T06:48:58;8.90;99.90
58983;DHT22;44771;49.982;8.560;2024-02-04T06:54:00;8.90;99.90
58983;DHT22;44771;49.982;8.560;2024-02-04T06:59:03;8.90;99.90
58983;DHT22;44771;49.982;8.560;2024-02-04T07:04:05;8.80;99.90
58983;DHT22;44771;49.982;8.560;2024-02-04T07:09:07;8.80;99.90
58983;DHT22;44771;49.982;8.560;2024-02-04T07:14:10;8.90;99.90
58983;DHT22;44771;49.982;8.560;2024-02-04T07:19:12;9.00;99.90
58983;DHT22;44771;49.982;8.560;2024-02-04T07:24:14;9.00;99.90
58983;DHT22;44771;49.982;8.560;2024-02-04T07:29:17;9.00;99.90
58983;DHT22;44771;49.982;8.560;2024-02-04T07:34:19;9.00;99.90
58983;DHT22;44771;49.982;8.560;2024-02-04T07:39:21;9.10;99.90
58983;DHT22;44771;49.982;8.560;2024-02-04T07:44:24;9.10;99.90
58983;DHT22;44771;49.982;8.560;2024-02-04T07:49:26;9.10;99.90
58983;DHT22;44771;49.982;8.560;2024-02-04T07:54:28;9.20;99.90
58983;DHT22;44771;49.982;8.560;2024-02-04T07:59:31;9.10;99.90
58983;DHT22;44771;49.982;8.560;2024-02-04T08:04:33;9.10;99.90
58983;DHT22;44771;49.982;8.560;2024-02-04T08:09:35;9.20;99.90
58983;DHT22;44771;49.982;8.560;2024-02-04T08:14:38;9.10;99.90
58983;DHT22;44771;49.982;8.560;2024-02-04T08:19:40;9.20;99.90
58983;DHT22;44771;49.982;8.560;2024-02-04T08:24:42;9.30;99.90
58983;DHT22;44771;49.982;8.560;2024-02-04T08:29:46;9.20;99.90
58983;DHT22;44771;49.982;8.560;2024-02-04T08:34:48;9.30;99.90
58983;DHT22;44771;49.982;8.560;2024-02-04T08:39:50;9.20;99.90
58983;DHT22;44771;49.982;8.560;2024-02-04T08:44:53;9.20;99.90
58983;DHT22;44771;49.982;8.560;2024-02-04T08:49:55;9.20;99.90
58983;DHT22;44771;49.982;8.560;2024-02-04T08:54:57;9.30;99.90
58983;DHT22;44771;49.982;8.560;2024-02-04T09:00:00;9.30;99.90
58983;DHT22;44771;49.982;8.560;2024-02-04T09:05:02;9.50;99.90
58983;DHT22;44771;49.982;8.560;2024-02-04T09:10:04;9.70;99.90
58983;DHT22;44771;49.982;8.560;2024-02-04T09:15:08;9.80;99.90
58983;DHT22;44771;49.982;8.560;2024-02-04T09:20:11;9.90;99.90
58983;DHT22;44771;49.982;8.560;2024-02-04T09:25:13;9.90;99.90
58983;DHT22;44771;49.982;8.560;2024-02-04T09:30:16;9.90;99.90
58983;DHT22;44771;49.982;8.560;2024-02-04T09:35:18;9.90;99.90
58983;DHT22;44771;49.982;8.560;2024-02-04T09:40:21;10.10;99.90
58983;DHT22;44771;49.982;8.560;2024-02-04T09:45:26;10.20;99.90
58983;DHT22;44771;49.982;8.560;2024-02-04T09:50:28;10.30;99.90
58983;DHT22;44771;49.982;8.560;2024-02-04T09:55:31;10.40;99.90
58983;DHT22;44771;49.982;8.560;2024-02-04T10:00:35;10.50;99.90
58983;DHT22;44771;49.982;8.560;2024-02-04T10:05:40;10.70;99.90
58983;DHT22;44771;49.982;8.560;2024-02-04T10:10:42;10.70;99.90
58983;DHT22;44771;49.982;8.560;2024-02-04T10:15:45;10.50;99.90
58983;DHT22;44771;49.982;8.560;2024-02-04T10:20:47;10.40;99.90
58983;DHT22;44771;49.982;8.560;2024-02-04T10:25:57;10.40;99.90
58983;DHT22;44771;49.982;8.560;2024-02-04T10:31:01;10.50;99.90
58983;DHT22;44771;49.982;8.560;2024-02-04T10:36:04;10.50;99.90
58983;DHT22;44771;49.982;8.560;2024-02-04T10:41:06;10.60;99.90
58983;DHT22;44771;49.982;8.560;2024-02-04T10:46:11;10.60;99.90
58983;DHT22;44771;49.982;8.560;2024-02-04T10:51:15;10.70;99.90
58983;DHT22;44771;49.982;8.560;2024-02-04T10:56:21;10.60;99.90
58983;DHT22;44771;49.982;8.560;2024-02-04T11:01:25;10.70;99.90
58983;DHT22;44771;49.982;8.560;2024-02-04T11:06:28;11.00;99.90
58983;DHT22;44771;49.982;8.560;2024-02-04T11:11:31;11.10;99.90
58983;DHT22;44771;49.982;8.560;2024-02-04T11:16:59;11.00;99.90
58983;DHT22;44771;49.982;8.560;2024-02-04T11:22:26;11.00;99.90
58983;DHT22;44771;49.982;8.560;2024-02-04T11:27:31;10.90;99.90
58983;DHT22;44771;49.982;8.560;2024-02-04T11:32:36;11.00;99.90
58983;DHT22;44771;49.982;8.560;2024-02-04T11:37:38;11.30;99.90
58983;DHT22;44771;49.982;8.560;2024-02-04T11:42:40;11.10;99.90
58983;DHT22;44771;49.982;8.560;2024-02-04T11:47:44;11.20;99.90
58983;DHT22;44771;49.982;8.560;2024-02-04T11:52:47;11.10;99.90
58983;DHT22;44771;49.982;8.560;2024-02-04T11:57:49;11.10;99.90
58983;DHT22;44771;49.982;8.560;2024-02-04T12:03:01;11.10;99.90
58983;DHT22;44771;49.982;8.560;2024-02-04T12:08:04;11.00;99.90
58983;DHT22;44771;49.982;8.560;2024-02-04T12:13:09;10.90;99.90
58983;DHT22;44771;49.982;8.560;2024-02-04T12:18:13;10.90;99.90
58983;DHT22;44771;49.982;8.560;2024-02-04T12:23:15;10.90;99.90
58983;DHT22;44771;49.982;8.560;2024-02-04T12:28:18;10.90;99.90
58983;DHT22;44771;49.982;8.560;2024-02-04T12:33:22;10.90;99.90
58983;DHT22;44771;49.982;8.560;2024-02-04T12:38:24;10.80;99.90
58983;DHT22;44771;49.982;8.560;2024-02-04T12:43:25;10.70;99.90
58983;DHT22;44771;49.982;8.560;2024-02-04T12:48:29;10.80;99.90
58983;DHT22;44771;49.982;8.560;2024-02-04T12:53:30;10.90;99.90
58983;DHT22;44771;49.982;8.560;2024-02-04T12:58:42;10.90;99.90
58983;DHT22;44771;49.982;8.560;2024-02-04T13:03:45;10.80;99.90
58983;DHT22;44771;49.982;8.560;2024-02-04T13:08:47;10.80;99.90
58983;DHT22;44771;49.982;8.560;2024-02-04T13:13:49;10.70;99.90
58983;DHT22;44771;49.982;8.560;2024-02-04T13:18:55;10.70;99.90
58983;DHT22;44771;49.982;8.560;2024-02-04T13:23:57;10.60;99.90
58983;DHT22;44771;49.982;8.560;2024-02-04T13:28:59;10.70;99.90
58983;DHT22;44771;49.982;8.560;2024-02-04T13:34:02;10.60;99.90
58983;DHT22;44771;49.982;8.560;2024-02-04T13:39:04;10.50;99.90
58983;DHT22;44771;49.982;8.560;2024-02-04T13:44:06;10.50;99.90
58983;DHT22;44771;49.982;8.560;2024-02-04T13:49:11;10.60;99.90
58983;DHT22;44771;49.982;8.560;2024-02-04T13:54:13;10.60;99.90
58983;DHT22;44771;49.982;8.560;2024-02-04T13:59:15;10.70;99.90
58983;DHT22;44771;49.982;8.560;2024-02-04T14:04:18;10.90;99.90
58983;DHT22;44771;49.982;8.560;2024-02-04T14:09:20;10.70;99.90
58983;DHT22;44771;49.982;8.560;2024-02-04T14:14:22;10.70;99.90
58983;DHT22;44771;49.982;8.560;2024-02-04T14:19:25;10.70;99.90
58983;DHT22;44771;49.982;8.560;2024-02-04T14:24:27;10.80;99.90
58983;DHT22;44771;49.982;8.560;2024-02-04T14:29:29;10.80;99.90
58983;DHT22;44771;49.982;8.560;2024-02-04T14:34:32;10.90;99.90
58983;DHT22;44771;49.982;8.560;2024-02-04T14:39:34;10.80;99.90
58983;DHT22;44771;49.982;8.560;2024-02-04T14:44:36;10.70;99.90
58983;DHT22;44771;49.982;8.560;2024-02-04T14:49:40;10.70;99.90
58983;DHT22;44771;49.982;8.560;2024-02-04T14:54:42;10.80;99.90
58983;DHT22;44771;49.982;8.560;2024-02-04T14:59:43;10.80;99.90
58983;DHT22;44771;49.982;8.560;2024-02-04T15:04:47;10.70;99.90
58983;DHT22;44771;49.982;8.560;2024-02-04T15:09:48;10.80;99.90
58983;DHT22;44771;49.982;8.560;2024-02-04T15:14:51;10.80;99.90
58983;DHT22;44771;49.982;8.560;2024-02-04T15:19:55;10.70;99.90
58983;DHT22;44771;49.982;8.560;2024-02-04T15:25:00;10.70;99.90
58983;DHT22;44771;49.982;8.560;2024-02-04T15:30:02;10.70;99.90
58983;DHT22;44771;49.982;8.560;2024-02-04T15:35:06;10.70;99.90
58983;DHT22;44771;49.982;8.560;2024-02-04T15:40:09;10.60;99.90
58983;DHT22;44771;49.982;8.560;2024-02-04T15:45:11;10.70;99.90
58983;DHT22;44771;49.982;8.560;2024-02-04T15:50:16;10.60;99.90
58983;DHT22;44771;49.982;8.560;2024-02-04T15:55:18;10.60;99.90
58983;DHT22;44771;49.982;8.560;2024-02-04T16:00:21;10.60;99.90
58983;DHT22;44771;49.982;8.560;2024-02-04T16:05:25;10.60;99.90
58983;DHT22;44771;49.982;8.560;2024-02-04T16:10:29;10.50;99.90
58983;DHT22;44771;49.982;8.560;2024-02-04T16:15:32;10.50;99.90
58983;DHT22;44771;49.982;8.560;2024-02-04T16:20:35;10.50;99.90
58983;DHT22;44771;49.982;8.560;2024-02-04T16:25:37;10.60;99.90
58983;DHT22;44771;49.982;8.560;2024-02-04T16:30:39;10.50;99.90
58983;DHT22;44771;49.982;8.560;2024-02-04T16:35:43;10.60;99.90
58983;DHT22;44771;49.982;8.560;2024-02-04T16:40:45;10.50;99.90
58983;DHT22;44771;49.982;8.560;2024-02-04T16:45:46;10.50;99.90
58983;DHT22;44771;49.982;8.560;2024-02-04T16:50:50;10.50;99.90
58983;DHT22;44771;49.982;8.560;2024-02-04T16:55:51;10.50;99.90
58983;DHT22;44771;49.982;8.560;2024-02-04T17:00:53;10.50;99.90
58983;DHT22;44771;49.982;8.560;2024-02-04T17:05:57;10.50;99.90
58983;DHT22;44771;49.982;8.560;2024-02-04T17:11:00;10.60;99.90
58983;DHT22;44771;49.982;8.560;2024-02-04T17:16:14;10.50;99.90
58983;DHT22;44771;49.982;8.560;2024-02-04T17:21:32;10.40;99.90
58983;DHT22;44771;49.982;8.560;2024-02-04T17:26:37;10.50;99.90
58983;DHT22;44771;49.982;8.560;2024-02-04T17:31:40;10.50;99.90
58983;DHT22;44771;49.982;8.560;2024-02-04T17:36:43;10.60;99.90
58983;DHT22;44771;49.982;8.560;2024-02-04T17:41:45;10.50;99.90
58983;DHT22;44771;49.982;8.560;2024-02-04T17:46:47;10.50;99.90
58983;DHT22;44771;49.982;8.560;2024-02-04T17:51:50;10.40;99.90
58983;DHT22;44771;49.982;8.560;2024-02-04T17:56:53;10.50;99.90
58983;DHT22;44771;49.982;8.560;2024-02-04T18:01:55;10.50;99.90
58983;DHT22;44771;49.982;8.560;2024-02-04T18:06:58;10.40;99.90
58983;DHT22;44771;49.982;8.560;2024-02-04T18:12:23;10.40;99.90
58983;DHT22;44771;49.982;8.560;2024-02-04T18:17:45;10.30;99.90
58983;DHT22;44771;49.982;8.560;2024-02-04T18:22:52;10.40;99.90
58983;DHT22;44771;49.982;8.560;2024-02-04T18:27:54;10.40;99.90
58983;DHT22;44771;49.982;8.560;2024-02-04T18:32:56;10.40;99.90
58983;DHT22;44771;49.982;8.560;2024-02-04T18:38:00;10.40;99.90
58983;DHT22;44771;49.982;8.560;2024-02-04T18:43:02;10.40;99.90
58983;DHT22;44771;49.982;8.560;2024-02-04T18:48:04;10.30;99.90
58983;DHT22;44771;49.982;8.560;2024-02-04T18:53:08;10.30;99.90
58983;DHT22;44771;49.982;8.560;2024-02-04T18:58:13;10.40;99.90
58983;DHT22;44771;49.982;8.560;2024-02-04T19:03:15;10.30;99.90
58983;DHT22;44771;49.982;8.560;2024-02-04T19:08:18;10.30;99.90
58983;DHT22;44771;49.982;8.560;2024-02-04T19:13:20;10.30;99.90
58983;DHT22;44771;49.982;8.560;2024-02-04T19:18:22;10.20;99.90
58983;DHT22;44771;49.982;8.560;2024-02-04T19:23:25;10.20;99.90
58983;DHT22;44771;49.982;8.560;2024-02-04T19:28:27;10.20;99.90
58983;DHT22;44771;49.982;8.560;2024-02-04T19:33:33;10.10;99.90
58983;DHT22;44771;49.982;8.560;2024-02-04T19:38:36;10.10;99.90
58983;DHT22;44771;49.982;8.560;2024-02-04T19:43:38;10.10;99.90
58983;DHT22;44771;49.982;8.560;2024-02-04T19:48:40;10.10;99.90
58983;DHT22;44771;49.982;8.560;2024-02-04T19:53:43;10.10;99.90
58983;DHT22;44771;49.982;8.560;2024-02-04T19:58:45;10.10;99.90
58983;DHT22;44771;49.982;8.560;2024-02-04T20:03:47;10.10;99.90
58983;DHT22;44771;49.982;8.560;2024-02-04T20:08:50;10.10;99.90
58983;DHT22;44771;49.982;8.560;2024-02-04T20:13:52;10.20;99.90
58983;DHT22;44771;49.982;8.560;2024-02-04T20:18:54;10.10;99.90
58983;DHT22;44771;49.982;8.560;2024-02-04T20:23:57;10.10;99.90
58983;DHT22;44771;49.982;8.560;2024-02-04T20:28:59;10.10;99.90
58983;DHT22;44771;49.982;8.560;2024-02-04T20:34:01;10.10;99.90
58983;DHT22;44771;49.982;8.560;2024-02-04T20:39:05;10.00;99.90
58983;DHT22;44771;49.982;8.560;2024-02-04T20:44:07;10.10;99.90
58983;DHT22;44771;49.982;8.560;2024-02-04T20:49:09;10.10;99.90
58983;DHT22;44771;49.982;8.560;2024-02-04T20:54:12;10.00;99.90
58983;DHT22;44771;49.982;8.560;2024-02-04T20:59:14;10.00;99.90
58983;DHT22;44771;49.982;8.560;2024-02-04T21:04:16;10.00;99.90
58983;DHT22;44771;49.982;8.560;2024-02-04T21:09:19;10.10;99.90
58983;DHT22;44771;49.982;8.560;2024-02-04T21:14:21;10.00;99.90
58983;DHT22;44771;49.982;8.560;2024-02-04T21:19:23;10.00;99.90
58983;DHT22;44771;49.982;8.560;2024-02-04T21:24:26;9.90;99.90
58983;DHT22;44771;49.982;8.560;2024-02-04T21:29:28;9.90;99.90
58983;DHT22;44771;49.982;8.560;2024-02-04T21:34:30;10.00;99.90
58983;DHT22;44771;49.982;8.560;2024-02-04T21:39:33;10.00;99.90
58983;DHT22;44771;49.982;8.560;2024-02-04T21:44:35;9.90;99.90
58983;DHT22;44771;49.982;8.560;2024-02-04T21:49:37;9.90;99.90
58983;DHT22;44771;49.982;8.560;2024-02-04T21:54:43;9.80;99.90
58983;DHT22;44771;49.982;8.560;2024-02-04T21:59:45;9.90;99.90
58983;DHT22;44771;49.982;8.560;2024-02-04T22:04:47;9.80;99.90
58983;DHT22;44771;49.982;8.560;2024-02-04T22:09:50;9.80;99.90
58983;DHT22;44771;49.982;8.560;2024-02-04T22:14:52;9.80;99.90
58983;DHT22;44771;49.982;8.560;2024-02-04T22:19:54;9.70;99.90
58983;DHT22;44771;49.982;8.560;2024-02-04T22:24:57;9.80;99.90
58983;DHT22;44771;49.982;8.560;2024-02-04T22:29:59;9.70;99.90
58983;DHT22;44771;49.982;8.560;2024-02-04T22:35:01;9.60;99.90
58983;DHT22;44771;49.982;8.560;2024-02-04T22:40:06;9.70;99.90
58983;DHT22;44771;49.982;8.560;2024-02-04T22:45:10;9.60;99.90
58983;DHT22;44771;49.982;8.560;2024-02-04T22:50:12;9.60;99.90
58983;DHT22;44771;49.982;8.560;2024-02-04T22:55:15;9.60;99.90
58983;DHT22;44771;49.982;8.560;2024-02-04T23:00:17;9.60;99.90
58983;DHT22;44771;49.982;8.560;2024-02-04T23:05:19;9.60;99.90
58983;DHT22;44771;49.982;8.560;2024-02-04T23:10:23;9.60;99.90
58983;DHT22;44771;49.982;8.560;2024-02-04T23:15:25;9.60;99.90
58983;DHT22;44771;49.982;8.560;2024-02-04T23:20:27;9.60;99.90
58983;DHT22;44771;49.982;8.560;2024-02-04T23:25:30;9.60;99.90
58983;DHT22;44771;49.982;8.560;2024-02-04T23:30:32;9.70;99.90
58983;DHT22;44771;49.982;8.560;2024-02-04T23:35:34;9.60;99.90
58983;DHT22;44771;49.982;8.560;2024-02-04T23:40:37;9.60;99.90
58983;DHT22;44771;49.982;8.560;2024-02-04T23:45:39;9.60;99.90
58983;DHT22;44771;49.982;8.560;2024-02-04T23:50:41;9.70;99.90
58983;DHT22;44771;49.982;8.560;2024-02-04T23:55:44;9.60;99.90
